createdAt,value
2022-10-03T00:01:39.254Z,101194.66
2022-10-03T00:04:37.168Z,101202.44
2022-10-03T00:07:25.963Z,101201.91
2022-10-03T00:10:17.358Z,100910.06
2022-10-03T00:13:10.831Z,100921.66
2022-10-03T00:15:56.347Z,100939.81
2022-10-03T00:18:45.042Z,100933.69
2022-10-03T00:21:34.884Z,100944.16
2022-10-03T00:24:26.567Z,100948.06
2022-10-03T00:27:11.678Z,100943.75
2022-10-03T00:30:03.830Z,100952.25
2022-10-03T00:32:49.850Z,100950.72
2022-10-03T00:35:40.723Z,100959.38
2022-10-03T00:38:29.642Z,100958.25
2022-10-03T00:41:32.630Z,100953.78
2022-10-03T00:44:40.233Z,100953.38
2022-10-03T00:47:40.567Z,100951.56
2022-10-03T00:50:39.234Z,100950.72
2022-10-03T00:53:37.302Z,100950.72
2022-10-03T00:56:41.676Z,100946.50
2022-10-03T00:59:34.745Z,100944.69
2022-10-03T01:02:29.591Z,100957.00
2022-10-03T01:05:19.688Z,100978.22
2022-10-03T01:09:12.138Z,100969.72
2022-10-03T01:12:02.036Z,100981.31
2022-10-03T01:15:01.194Z,100990.94
2022-10-03T01:17:51.572Z,100981.47
2022-10-03T01:20:42.916Z,100983.81
2022-10-03T01:23:39.748Z,100997.38
2022-10-03T01:26:38.556Z,101003.97
2022-10-03T01:29:40.598Z,100997.13
2022-10-03T01:32:24.782Z,100997.66
2022-10-03T01:35:13.035Z,101007.00
2022-10-03T01:38:02.584Z,101002.13
2022-10-03T01:40:49.067Z,101005.34
2022-10-03T01:43:36.446Z,101001.16
2022-10-03T01:46:22.709Z,100994.88
2022-10-03T01:49:07.171Z,100996.41
2022-10-03T01:51:53.837Z,100991.38
2022-10-03T01:54:38.138Z,100994.56
2022-10-03T01:57:22.351Z,100995.13
2022-10-03T02:00:07.098Z,100996.97
2022-10-03T02:03:00.770Z,101013.31
2022-10-03T02:05:42.847Z,101009.53
2022-10-03T02:08:31.450Z,101006.03
2022-10-03T02:11:12.411Z,101017.78
2022-10-03T02:13:56.713Z,101005.75
2022-10-03T02:16:44.089Z,100987.03
2022-10-03T02:19:26.707Z,100981.44
2022-10-03T02:22:17.483Z,100985.06
2022-10-03T02:25:16.792Z,100983.84
2022-10-03T02:28:18.872Z,100990.66
2022-10-03T02:31:37.715Z,100991.09
2022-10-03T02:34:49.287Z,100999.34
2022-10-03T02:37:57.128Z,101011.06
2022-10-03T02:40:55.674Z,101014.41
2022-10-03T02:44:02.047Z,101018.31
2022-10-03T02:47:18.587Z,101011.59
2022-10-03T02:50:19.803Z,101014.25
2022-10-03T02:53:54.476Z,101014.53
2022-10-03T02:57:12.309Z,101017.34
2022-10-03T03:00:07.316Z,101018.31
2022-10-03T03:03:25.315Z,101027.38
2022-10-03T03:06:32.354Z,101028.63
2022-10-03T03:09:45.275Z,101028.38
2022-10-03T03:12:50.543Z,101026.69
2022-10-03T03:15:54.790Z,101023.59
2022-10-03T03:18:40.886Z,101027.22
2022-10-03T03:21:28.659Z,101028.63
2022-10-03T03:24:35.840Z,101023.59
2022-10-03T03:27:38.380Z,101017.72
2022-10-03T03:30:19.622Z,101019.13
2022-10-03T03:33:07.514Z,101019.84
2022-10-03T03:35:59.885Z,101032.50
2022-10-03T03:38:47.607Z,101031.13
2022-10-03T03:41:44.048Z,101028.88
2022-10-03T03:44:38.407Z,101017.31
2022-10-03T03:47:31.452Z,101015.38
2022-10-03T03:50:32.378Z,101015.47
2022-10-03T03:53:24.726Z,101023.44
2022-10-03T03:56:25.484Z,101020.50
2022-10-03T03:59:40.833Z,101025.81
2022-10-03T04:02:28.916Z,101029.16
2022-10-03T04:05:19.313Z,101010.19
2022-10-03T04:08:12.211Z,101011.75
2022-10-03T04:11:02.589Z,101001.13
2022-10-03T04:13:54.178Z,100994.28
2022-10-03T04:17:01.359Z,100995.13
2022-10-03T04:20:04.400Z,100981.03
2022-10-03T04:22:57.503Z,100983.13
2022-10-03T04:25:49.453Z,100980.91
2022-10-03T04:28:39.873Z,100977.13
2022-10-03T04:31:30.125Z,100983.97
2022-10-03T04:34:18.136Z,100971.97
2022-10-03T04:37:08.299Z,100970.84
2022-10-03T04:39:53.589Z,100972.94
2022-10-03T04:42:46.319Z,100968.06
2022-10-03T04:45:39.698Z,100978.38
2022-10-03T04:48:28.910Z,100986.75
2022-10-03T04:51:17.901Z,100993.75
2022-10-03T04:54:02.252Z,101009.81
2022-10-03T04:56:47.647Z,101009.41
2022-10-03T04:59:47.144Z,101019.88
2022-10-03T05:02:38.065Z,101021.69
2022-10-03T05:05:33.925Z,101023.59
2022-10-03T05:08:24.104Z,101026.41
2022-10-03T05:11:19.540Z,101025.31
2022-10-03T05:14:05.712Z,101028.38
2022-10-03T05:17:34.863Z,101026.41
2022-10-03T05:20:23.848Z,101024.44
2022-10-03T05:23:13.560Z,101032.84
2022-10-03T05:26:30.841Z,101027.97
2022-10-03T05:29:10.820Z,101030.91
2022-10-03T05:32:00.706Z,101033.56
2022-10-03T05:34:52.390Z,101042.63
2022-10-03T05:38:04.317Z,101049.91
2022-10-03T05:40:49.003Z,101059.66
2022-10-03T05:43:42.395Z,101059.81
2022-10-03T05:46:34.836Z,101072.22
2022-10-03T05:49:27.311Z,101080.88
2022-10-03T05:52:20.796Z,101092.31
2022-10-03T05:55:19.478Z,101105.59
2022-10-03T05:58:32.073Z,101100.28
2022-10-03T06:01:22.932Z,101118.28
2022-10-03T06:04:24.255Z,101121.63
2022-10-03T06:07:15.322Z,101117.16
2022-10-03T06:10:18.062Z,101110.19
2022-10-03T06:13:12.145Z,101107.66
2022-10-03T06:15:59.401Z,101118.16
2022-10-03T06:19:08.626Z,101119.69
2022-10-03T06:22:37.907Z,101097.47
2022-10-03T06:25:36.889Z,101098.19
2022-10-03T06:28:51.944Z,101084.78
2022-10-03T06:32:01.833Z,101078.94
2022-10-03T06:35:13.009Z,101078.09
2022-10-03T06:38:22.875Z,101056.31
2022-10-03T06:41:29.948Z,101060.50
2022-10-03T06:44:22.991Z,101054.78
2022-10-03T06:47:21.010Z,101059.09
2022-10-03T06:50:19.413Z,101062.22
2022-10-03T06:53:21.451Z,101056.06
2022-10-03T06:56:20.287Z,101037.91
2022-10-03T06:59:38.088Z,101037.06
2022-10-03T07:02:56.230Z,101019.34
2022-10-03T07:05:55.637Z,101015.13
2022-10-03T07:09:21.878Z,101014.53
2022-10-03T07:12:25.709Z,101010.75
2022-10-03T07:15:38.045Z,101010.03
2022-10-03T07:18:57.035Z,100992.63
2022-10-03T07:22:10.828Z,100998.06
2022-10-03T07:25:28.488Z,101003.09
2022-10-03T07:28:35.070Z,101005.00
2022-10-03T07:31:22.515Z,101005.84
2022-10-03T07:34:19.573Z,101015.50
2022-10-03T07:37:30.148Z,101026.97
2022-10-03T07:40:54.195Z,101018.72
2022-10-03T07:43:50.054Z,101026.78
2022-10-03T07:46:48.996Z,101035.16
2022-10-03T07:49:47.258Z,101045.53
2022-10-03T07:52:54.618Z,101050.41
2022-10-03T07:55:48.961Z,101053.59
2022-10-03T07:58:53.447Z,101053.84
2022-10-03T08:01:48.610Z,101057.75
2022-10-03T08:04:59.613Z,101062.31
2022-10-03T08:07:55.996Z,101062.13
2022-10-03T08:11:03.759Z,101068.38
2022-10-03T08:13:56.607Z,101070.44
2022-10-03T08:16:54.468Z,101076.31
2022-10-03T08:19:46.835Z,101073.88
2022-10-03T08:22:40.709Z,101082.84
2022-10-03T08:25:40.741Z,101099.41
2022-10-03T08:28:48.782Z,101107.81
2022-10-03T08:31:56.306Z,101117.53
2022-10-03T08:34:58.410Z,101120.00
2022-10-03T08:38:00.860Z,101128.03
2022-10-03T08:41:01.614Z,101136.81
2022-10-03T08:44:16.196Z,101159.56
2022-10-03T08:47:26.495Z,101171.81
2022-10-03T08:50:34.423Z,101186.75
2022-10-03T08:53:37.396Z,101203.88
2022-10-03T08:56:19.491Z,101221.00
2022-10-03T08:59:31.751Z,101236.16
2022-10-03T09:03:31.848Z,101242.25
2022-10-03T09:07:15.339Z,101266.28
2022-10-03T09:10:08.872Z,101282.00
2022-10-03T09:13:11.952Z,101319.56
2022-10-03T09:16:18.265Z,101369.31
2022-10-03T09:19:17.608Z,101426.72
2022-10-03T09:22:20.453Z,101514.59
2022-10-03T09:25:20.963Z,101770.81
2022-10-03T09:28:47.893Z,101810.59
2022-10-03T09:31:52.148Z,101824.13
2022-10-03T09:35:07.059Z,101847.91
2022-10-03T09:38:11.645Z,101855.25
2022-10-03T09:41:19.379Z,101864.47
2022-10-03T09:44:16.427Z,101869.97
2022-10-03T09:47:39.079Z,101867.13
2022-10-03T09:50:54.001Z,101875.91
2022-10-03T09:53:48.988Z,101885.06
2022-10-03T09:57:02.693Z,101878.88
2022-10-03T09:59:56.371Z,101892.22
2022-10-03T10:03:08.417Z,101901.09
2022-10-03T10:06:25.861Z,101898.97
2022-10-03T10:09:31.991Z,101915.41
2022-10-03T10:12:45.653Z,101923.31
2022-10-03T10:15:56.219Z,101928.84
2022-10-03T10:19:14.016Z,101941.25
2022-10-03T10:22:19.978Z,101915.78
2022-10-03T10:25:24.710Z,101929.22
2022-10-03T10:28:44.308Z,101934.13
2022-10-03T10:31:52.351Z,101932.09
2022-10-03T10:34:56.552Z,101944.38
2022-10-03T10:37:56.944Z,101956.47
2022-10-03T10:41:03.931Z,101954.06
2022-10-03T10:44:18.356Z,101960.06
2022-10-03T10:47:14.624Z,101965.25
2022-10-03T10:50:13.739Z,101974.31
2022-10-03T10:53:25.674Z,101975.13
2022-10-03T10:56:43.536Z,101974.50
2022-10-03T11:00:04.784Z,101973.47
2022-10-03T11:03:30.191Z,101984.63
2022-10-03T11:07:04.898Z,101990.72
2022-10-03T11:10:16.591Z,101998.28
2022-10-03T11:13:41.551Z,101996.69
2022-10-03T11:17:05.424Z,101998.34
2022-10-03T11:20:33.509Z,101993.09
2022-10-03T11:23:44.192Z,101998.66
2022-10-03T11:27:10.594Z,102009.81
2022-10-03T11:30:37.520Z,101997.59
2022-10-03T11:34:00.479Z,102001.69
2022-10-03T11:36:58.635Z,102015.75
2022-10-03T11:39:45.509Z,102010.69
2022-10-03T11:42:33.401Z,102007.81
2022-10-03T11:46:10.629Z,102011.59
2022-10-03T11:48:53.962Z,102010.78
2022-10-03T11:51:44.013Z,102008.50
2022-10-03T11:54:37.148Z,102013.25
2022-10-03T11:57:18.870Z,102006.59
2022-10-03T12:00:03.007Z,102008.28
2022-10-03T12:03:05.388Z,102002.59
2022-10-03T12:05:52.707Z,102005.28
2022-10-03T12:08:53.407Z,102008.31
2022-10-03T12:11:39.128Z,102010.84
2022-10-03T12:14:29.051Z,102005.09
2022-10-03T12:17:14.921Z,101998.03
2022-10-03T12:20:02.397Z,102014.06
2022-10-03T12:22:50.154Z,102009.50
2022-10-03T12:25:32.050Z,102003.81
2022-10-03T12:28:17.948Z,102002.13
2022-10-03T12:31:02.275Z,102005.50
2022-10-03T12:33:52.486Z,101994.25
2022-10-03T12:36:41.357Z,101996.78
2022-10-03T12:39:40.634Z,101990.91
2022-10-03T12:42:27.704Z,101991.25
2022-10-03T12:45:17.312Z,101993.09
2022-10-03T12:48:23.791Z,101992.44
2022-10-03T12:51:11.368Z,101997.94
2022-10-03T12:53:59.919Z,101989.41
2022-10-03T12:56:46.425Z,101990.41
2022-10-03T12:59:33.765Z,101987.22
2022-10-03T13:02:24.495Z,101995.63
2022-10-03T13:05:26.163Z,101993.09
2022-10-03T13:08:12.618Z,101985.03
2022-10-03T13:10:52.912Z,101984.38
2022-10-03T13:13:57.994Z,101986.22
2022-10-03T13:16:41.058Z,101987.91
2022-10-03T13:19:21.409Z,101988.03
2022-10-03T13:22:08.124Z,101986.53
2022-10-03T13:24:53.718Z,101984.03
2022-10-03T13:27:42.299Z,101977.97
2022-10-03T13:30:25.050Z,101978.47
2022-10-03T13:33:10.676Z,101972.06
2022-10-03T13:36:01.568Z,101974.59
2022-10-03T13:38:55.138Z,101974.94
2022-10-03T13:41:47.227Z,101965.34
2022-10-03T13:44:36.413Z,101968.38
2022-10-03T13:47:28.002Z,101962.84
2022-10-03T13:50:17.516Z,101970.38
2022-10-03T13:53:00.966Z,101961.84
2022-10-03T13:55:46.444Z,101959.13
2022-10-03T13:58:38.516Z,101960.81
2022-10-03T14:01:33.437Z,101960.66
2022-10-03T14:04:44.431Z,101959.47
2022-10-03T14:07:35.512Z,101950.72
2022-10-03T14:10:27.146Z,101946.72
2022-10-03T14:13:17.048Z,101948.75
2022-10-03T14:16:01.514Z,101952.25
2022-10-03T14:18:53.744Z,101959.81
2022-10-03T14:21:51.970Z,101957.94
2022-10-03T14:24:46.545Z,101956.13
2022-10-03T14:27:37.543Z,101948.72
2022-10-03T14:30:18.134Z,101955.06
2022-10-03T14:33:03.569Z,101954.22
2022-10-03T14:35:54.832Z,101959.75
2022-10-03T14:38:58.748Z,101952.50
2022-10-03T14:41:46.066Z,101941.91
2022-10-03T14:44:29.587Z,101944.56
2022-10-03T14:47:23.865Z,101932.47
2022-10-03T14:50:04.790Z,101933.97
2022-10-03T14:52:46.958Z,101931.25
2022-10-03T14:55:30.389Z,101922.34
2022-10-03T14:58:18.042Z,101930.22
2022-10-03T15:01:07.443Z,101928.03
2022-10-03T15:03:54.984Z,101913.06
2022-10-03T15:06:53.814Z,101921.06
2022-10-03T15:09:35.534Z,101923.06
2022-10-03T15:12:20.603Z,101922.56
2022-10-03T15:15:04.854Z,101921.66
2022-10-03T15:17:49.471Z,101916.13
2022-10-03T15:20:34.829Z,101920.00
2022-10-03T15:23:22.368Z,101912.09
2022-10-03T15:26:04.053Z,101911.75
2022-10-03T15:28:46.631Z,101927.53
2022-10-03T15:31:34.522Z,101920.28
2022-10-03T15:34:17.998Z,101916.44
2022-10-03T15:37:01.422Z,101904.03
2022-10-03T15:39:43.879Z,101907.66
2022-10-03T15:42:51.182Z,101906.97
2022-10-03T15:45:33.665Z,101910.31
2022-10-03T15:48:17.649Z,101909.47
2022-10-03T15:51:01.073Z,101908.63
2022-10-03T15:53:49.291Z,101903.00
2022-10-03T15:56:32.646Z,101899.50
2022-10-03T15:59:20.415Z,101903.19
2022-10-03T16:02:04.371Z,101895.63
2022-10-03T16:04:46.094Z,101891.88
2022-10-03T16:07:31.591Z,101892.19
2022-10-03T16:10:20.864Z,101882.13
2022-10-03T16:13:09.311Z,101885.59
2022-10-03T16:16:11.739Z,101881.22
2022-10-03T16:18:56.544Z,101877.81
2022-10-03T16:21:46.374Z,101880.00
2022-10-03T16:24:35.416Z,101884.00
2022-10-03T16:27:19.604Z,101877.44
2022-10-03T16:30:17.252Z,101878.34
2022-10-03T16:33:06.827Z,101870.09
2022-10-03T16:35:52.251Z,101862.44
2022-10-03T16:38:37.483Z,101860.81
2022-10-03T16:41:24.029Z,101860.69
2022-10-03T16:44:11.457Z,101851.06
2022-10-03T16:46:53.028Z,101857.84
2022-10-03T16:50:07.437Z,101853.88
2022-10-03T16:52:52.315Z,101857.16
2022-10-03T16:56:00.311Z,101844.19
2022-10-03T16:58:45.975Z,101840.31
2022-10-03T17:01:33.269Z,101845.84
2022-10-03T17:04:22.801Z,101850.81
2022-10-03T17:07:06.308Z,101843.66
2022-10-03T17:09:47.625Z,101845.78
2022-10-03T17:12:31.252Z,101851.72
2022-10-03T17:15:20.971Z,101854.84
2022-10-03T17:18:09.549Z,101843.72
2022-10-03T17:20:51.204Z,101832.63
2022-10-03T17:23:36.450Z,101837.75
2022-10-03T17:26:22.027Z,101834.94
2022-10-03T17:29:18.856Z,101822.63
2022-10-03T17:32:02.089Z,101818.69
2022-10-03T17:34:48.087Z,101823.19
2022-10-03T17:37:54.797Z,101830.81
2022-10-03T17:40:50.784Z,101831.38
2022-10-03T17:43:37.353Z,101830.97
2022-10-03T17:46:24.515Z,101829.72
2022-10-03T17:49:09.925Z,101833.94
2022-10-03T17:51:51.467Z,101827.47
2022-10-03T17:54:34.041Z,101844.78
2022-10-03T17:57:18.603Z,101839.16
2022-10-03T18:00:03.736Z,101836.50
2022-10-03T18:02:49.926Z,101838.75
2022-10-03T18:05:37.174Z,101834.78
2022-10-03T18:08:31.178Z,101829.00
2022-10-03T18:11:21.679Z,101836.06
2022-10-03T18:14:07.706Z,101832.97
2022-10-03T18:16:49.017Z,101831.44
2022-10-03T18:19:40.732Z,101830.97
2022-10-03T18:22:21.973Z,101831.97
2022-10-03T18:25:24.180Z,101827.16
2022-10-03T18:28:12.855Z,101841.38
2022-10-03T18:30:57.211Z,101845.13
2022-10-03T18:33:50.813Z,101844.66
2022-10-03T18:36:35.770Z,101846.50
2022-10-03T18:39:16.972Z,101853.94
2022-10-03T18:41:59.302Z,101850.84
2022-10-03T18:44:44.740Z,101844.78
2022-10-03T18:47:27.039Z,101846.31
2022-10-03T18:50:17.132Z,101846.16
2022-10-03T18:53:01.925Z,101847.81
2022-10-03T18:55:48.077Z,101844.13
2022-10-03T18:58:30.418Z,101835.75
2022-10-03T19:01:16.870Z,101831.66
2022-10-03T19:04:02.073Z,101816.22
2022-10-03T19:06:45.520Z,101821.72
2022-10-03T19:09:27.259Z,101819.00
2022-10-03T19:12:11.007Z,101812.00
2022-10-03T19:15:02.164Z,101812.22
2022-10-03T19:17:51.390Z,101808.81
2022-10-03T19:20:35.067Z,101814.00
2022-10-03T19:23:19.460Z,101803.88
2022-10-03T19:26:03.768Z,101813.63
2022-10-03T19:28:47.947Z,101806.88
2022-10-03T19:31:30.617Z,101802.63
2022-10-03T19:34:29.215Z,101798.41
2022-10-03T19:37:14.587Z,101797.97
2022-10-03T19:40:14.168Z,101793.91
2022-10-03T19:42:59.139Z,101794.41
2022-10-03T19:45:40.134Z,101797.81
2022-10-03T19:48:23.151Z,101788.97
2022-10-03T19:51:15.243Z,101791.88
2022-10-03T19:53:58.671Z,101801.38
2022-10-03T19:56:40.481Z,101797.72
2022-10-03T19:59:19.821Z,101806.09
2022-10-03T20:02:05.449Z,101794.88
2022-10-03T20:04:50.070Z,101795.97
2022-10-03T20:07:44.503Z,101792.28
2022-10-03T20:10:42.818Z,101800.44
2022-10-03T20:13:25.572Z,101793.44
2022-10-03T20:16:05.514Z,101786.44
2022-10-03T20:18:48.091Z,101783.91
2022-10-03T20:22:09.103Z,101778.84
2022-10-03T20:24:50.001Z,101779.09
2022-10-03T20:27:36.561Z,101775.47
2022-10-03T20:30:25.418Z,101775.72
2022-10-03T20:33:08.201Z,101775.25
2022-10-03T20:35:53.329Z,101771.16
2022-10-03T20:38:43.007Z,101775.38
2022-10-03T20:41:28.538Z,101762.94
2022-10-03T20:44:18.043Z,101769.34
2022-10-03T20:47:02.342Z,101763.19
2022-10-03T20:49:48.130Z,101759.38
2022-10-03T20:52:28.852Z,101754.50
2022-10-03T20:55:19.008Z,101749.56
2022-10-03T20:58:18.591Z,101758.41
2022-10-03T21:01:17.095Z,101761.44
2022-10-03T21:04:06.121Z,101766.91
2022-10-03T21:06:55.017Z,101765.00
2022-10-03T21:09:46.362Z,101753.38
2022-10-03T21:12:28.938Z,101750.84
2022-10-03T21:15:15.428Z,101743.00
2022-10-03T21:17:57.174Z,101740.22
2022-10-03T21:20:39.716Z,101744.97
2022-10-03T21:23:23.605Z,101734.31
2022-10-03T21:26:21.771Z,101734.31
2022-10-03T21:29:22.388Z,101745.22
2022-10-03T21:32:21.844Z,101733.59
2022-10-03T21:35:10.662Z,101736.09
2022-10-03T21:38:00.952Z,101728.25
2022-10-03T21:40:56.367Z,101722.81
2022-10-03T21:43:44.415Z,101707.47
2022-10-03T21:46:35.865Z,101702.31
2022-10-03T21:49:34.129Z,101702.53
2022-10-03T21:52:35.467Z,101702.28
2022-10-03T21:55:51.797Z,101705.91
2022-10-03T21:58:53.884Z,101688.50
2022-10-03T22:01:39.241Z,101691.41
2022-10-03T22:04:23.851Z,101681.81
2022-10-03T22:07:08.912Z,101672.75
2022-10-03T22:09:50.021Z,101671.66
2022-10-03T22:12:31.064Z,101672.41
2022-10-03T22:15:16.411Z,101668.75
2022-10-03T22:17:59.580Z,101658.25
2022-10-03T22:20:48.927Z,101656.22
2022-10-03T22:23:37.471Z,101645.81
2022-10-03T22:26:24.271Z,101632.66
2022-10-03T22:29:10.987Z,101616.88
2022-10-03T22:31:59.721Z,101605.53
2022-10-03T22:34:43.947Z,101594.91
2022-10-03T22:37:26.305Z,101579.09
2022-10-03T22:40:08.375Z,101564.97
2022-10-03T22:42:53.849Z,101560.50
2022-10-03T22:45:36.803Z,101553.38
2022-10-03T22:48:21.261Z,101549.88
2022-10-03T22:51:01.398Z,101533.78
2022-10-03T22:53:46.645Z,101533.66
2022-10-03T22:56:35.911Z,101524.28
2022-10-03T22:59:21.151Z,101519.38
2022-10-03T23:02:03.440Z,101514.63
2022-10-03T23:04:49.622Z,101510.41
2022-10-03T23:07:43.067Z,101504.41
2022-10-03T23:10:31.716Z,101514.06
2022-10-03T23:13:16.530Z,101512.41
2022-10-03T23:16:01.025Z,101517.69
2022-10-03T23:18:48.708Z,101517.19
2022-10-03T23:21:29.197Z,101515.75
2022-10-03T23:24:13.803Z,101511.41
2022-10-03T23:27:33.750Z,101510.25
2022-10-03T23:30:50.680Z,101506.88
2022-10-03T23:33:52.848Z,101508.22
2022-10-03T23:36:33.704Z,101496.91
2022-10-03T23:39:31.843Z,101489.06
2022-10-03T23:42:18.944Z,101491.97
2022-10-03T23:45:00.129Z,101488.63
2022-10-03T23:47:44.455Z,101488.88
2022-10-03T23:50:27.351Z,101485.25
2022-10-03T23:53:20.836Z,101481.63
2022-10-03T23:56:04.565Z,101466.94
2022-10-03T23:58:56.112Z,101460.75
